TAF Text Data
IDs:
Format:
Raw Decoded Include METAR

Data at: 0003 UTC 14 May 2021

KOAJ 132328Z 1400/1424 08009KT P6SM SKC
  FM140200 03003KT P6SM SKC
  FM141330 03008G13KT P6SM SCT070 AMD LTD TO CLD VIS AND WIND